createdAt,value
2023-02-03T00:00:06.637Z,101389.34
2023-02-03T00:02:33.036Z,101387.53
2023-02-03T00:04:59.403Z,101398.16
2023-02-03T00:07:25.891Z,101399.97
2023-02-03T00:09:52.339Z,101393.78
2023-02-03T00:12:18.782Z,101397.22
2023-02-03T00:14:45.211Z,101397.31
2023-02-03T00:17:11.699Z,101380.53
2023-02-03T00:19:38.131Z,101369.91
2023-02-03T00:22:04.514Z,101358.41
2023-02-03T00:24:30.904Z,101348.63
2023-02-03T00:26:57.325Z,101353.97
2023-02-03T00:29:25.906Z,101368.13
2023-02-03T00:31:53.727Z,101370.75
2023-02-03T00:34:20.515Z,101369.94
2023-02-03T00:36:48.229Z,101369.03
2023-02-03T00:39:15.688Z,101384.06
2023-02-03T00:41:42.430Z,101390.28
2023-02-03T00:44:08.866Z,101377.78
2023-02-03T00:46:38.135Z,101374.28
2023-02-03T00:49:04.709Z,101372.41
2023-02-03T00:51:31.775Z,101382.25
2023-02-03T00:53:58.115Z,101392.84
2023-02-03T00:56:24.671Z,101371.63
2023-02-03T00:58:51.010Z,101371.59
2023-02-03T01:01:17.862Z,101364.38
2023-02-03T01:03:44.438Z,101342.34
2023-02-03T01:06:14.202Z,101333.44
2023-02-03T01:08:40.714Z,101343.28
2023-02-03T01:11:19.071Z,101334.44
2023-02-03T01:13:45.797Z,101326.47
2023-02-03T01:16:15.407Z,101315.75
2023-02-03T01:18:42.245Z,101302.59
2023-02-03T01:21:17.739Z,101309.56
2023-02-03T01:23:44.216Z,101306.09
2023-02-03T01:26:14.283Z,101307.94
2023-02-03T01:28:41.071Z,101323.78
2023-02-03T01:31:16.857Z,101323.75
2023-02-03T01:33:46.251Z,101322.94
2023-02-03T01:36:13.559Z,101322.03
2023-02-03T01:38:39.931Z,101330.03
2023-02-03T01:41:08.410Z,101322.06
2023-02-03T01:43:40.553Z,101309.66
2023-02-03T01:46:28.495Z,101317.69
2023-02-03T01:49:01.879Z,101313.16
2023-02-03T01:51:28.303Z,101311.50
2023-02-03T01:53:55.843Z,101302.53
2023-02-03T01:56:23.663Z,101308.81
2023-02-03T01:58:50.973Z,101306.09
2023-02-03T02:01:19.630Z,101305.22
2023-02-03T02:03:52.358Z,101304.31
2023-02-03T02:06:18.800Z,101292.03
2023-02-03T02:08:50.517Z,101298.09
2023-02-03T02:11:18.456Z,101297.31
2023-02-03T02:13:45.899Z,101295.50
2023-02-03T02:16:22.386Z,101285.81
2023-02-03T02:19:02.142Z,101294.53
2023-02-03T02:21:37.540Z,101291.97
2023-02-03T02:24:28.910Z,101289.25
2023-02-03T02:27:00.151Z,101288.31
2023-02-03T02:30:05.234Z,101295.31
2023-02-03T02:32:36.821Z,101306.16
2023-02-03T02:35:03.262Z,101318.41
2023-02-03T02:38:04.071Z,101328.06
2023-02-03T02:41:00.028Z,101336.16
2023-02-03T02:43:39.424Z,101323.75
2023-02-03T02:46:14.642Z,101322.88
2023-02-03T02:48:45.918Z,101323.75
2023-02-03T02:51:15.398Z,101333.47
2023-02-03T02:53:49.275Z,101336.22
2023-02-03T02:56:18.727Z,101340.56
2023-02-03T02:58:49.326Z,101349.38
2023-02-03T03:01:16.461Z,101349.31
2023-02-03T03:03:45.086Z,101358.28
2023-02-03T03:06:37.804Z,101362.72
2023-02-03T03:09:26.910Z,101365.31
2023-02-03T03:11:59.977Z,101353.94
2023-02-03T03:14:31.087Z,101359.25
2023-02-03T03:17:02.764Z,101353.00
2023-02-03T03:19:35.173Z,101342.31
2023-02-03T03:22:05.715Z,101326.41
2023-02-03T03:24:37.914Z,101322.91
2023-02-03T03:27:22.290Z,101314.91
2023-02-03T03:29:54.705Z,101313.94
2023-02-03T03:32:21.460Z,101310.41
2023-02-03T03:34:48.650Z,101315.72
2023-02-03T03:37:19.805Z,101316.63
2023-02-03T03:39:56.050Z,101318.50
2023-02-03T03:42:46.244Z,101314.97
2023-02-03T03:45:28.248Z,101311.44
2023-02-03T03:48:12.236Z,101314.13
2023-02-03T03:50:45.147Z,101323.00
2023-02-03T03:53:13.442Z,101324.72
2023-02-03T03:55:41.026Z,101329.97
2023-02-03T03:58:12.391Z,101338.69
2023-02-03T04:00:41.218Z,101339.69
2023-02-03T04:03:21.894Z,101339.66
2023-02-03T04:05:48.612Z,101327.28
2023-02-03T04:08:15.074Z,101320.22
2023-02-03T04:10:43.013Z,101316.69
2023-02-03T04:13:10.895Z,101314.09
2023-02-03T04:15:37.689Z,101312.25
2023-02-03T04:18:04.614Z,101313.19
2023-02-03T04:20:32.615Z,101316.78
2023-02-03T04:22:59.674Z,101313.19
2023-02-03T04:25:26.382Z,101314.91
2023-02-03T04:27:52.773Z,101312.34
2023-02-03T04:30:19.124Z,101319.38
2023-02-03T04:32:46.376Z,101315.00
2023-02-03T04:35:13.427Z,101326.53
2023-02-03T04:37:39.917Z,101310.69
2023-02-03T04:40:07.028Z,101316.81
2023-02-03T04:42:33.508Z,101304.38
2023-02-03T04:44:59.897Z,101300.00
2023-02-03T04:47:26.299Z,101295.56
2023-02-03T04:49:52.758Z,101288.44
2023-02-03T04:52:19.199Z,101284.06
2023-02-03T04:54:45.686Z,101282.28
2023-02-03T04:57:12.152Z,101289.41
2023-02-03T04:59:38.610Z,101302.69
2023-02-03T05:02:05.566Z,101302.56
2023-02-03T05:04:32.264Z,101303.47
2023-02-03T05:06:58.726Z,101313.25
2023-02-03T05:09:25.725Z,101313.94
2023-02-03T05:11:52.542Z,101329.00
2023-02-03T05:14:19.065Z,101328.28
2023-02-03T05:16:46.469Z,101296.44
2023-02-03T05:19:13.228Z,101304.34
2023-02-03T05:21:39.703Z,101283.06
2023-02-03T05:24:07.800Z,101299.97
2023-02-03T05:26:35.545Z,101279.66
2023-02-03T05:29:02.507Z,101272.44
2023-02-03T05:31:29.065Z,101285.69
2023-02-03T05:33:55.540Z,101300.84
2023-02-03T05:36:21.966Z,101311.38
2023-02-03T05:38:48.400Z,101300.78
2023-02-03T05:41:33.574Z,101295.38
2023-02-03T05:44:00.280Z,101291.81
2023-02-03T05:46:26.695Z,101272.38
2023-02-03T05:48:53.097Z,101268.91
2023-02-03T05:51:19.515Z,101292.78
2023-02-03T05:53:45.987Z,101286.53
2023-02-03T05:56:12.419Z,101285.72
2023-02-03T05:58:38.782Z,101275.13
2023-02-03T06:01:05.367Z,101283.22
2023-02-03T06:03:31.842Z,101277.81
2023-02-03T06:05:58.905Z,101269.78
2023-02-03T06:08:28.609Z,101266.28
2023-02-03T06:10:59.868Z,101269.72
2023-02-03T06:13:26.957Z,101255.53
2023-02-03T06:15:53.450Z,101254.72
2023-02-03T06:18:19.985Z,101260.97
2023-02-03T06:20:46.610Z,101254.00
2023-02-03T06:23:13.335Z,101243.28
2023-02-03T06:25:39.755Z,101254.78
2023-02-03T06:28:06.245Z,101247.63
2023-02-03T06:30:32.677Z,101253.81
2023-02-03T06:32:59.117Z,101262.72
2023-02-03T06:35:25.639Z,101251.13
2023-02-03T06:37:52.852Z,101259.16
2023-02-03T06:40:19.279Z,101255.50
2023-02-03T06:42:47.196Z,101259.97
2023-02-03T06:45:14.447Z,101271.38
2023-02-03T06:47:42.275Z,101277.66
2023-02-03T06:50:10.759Z,101280.22
2023-02-03T06:52:37.196Z,101300.56
2023-02-03T06:55:05.346Z,101287.19
2023-02-03T06:57:32.604Z,101296.25
2023-02-03T06:59:59.394Z,101313.03
2023-02-03T07:02:25.964Z,101300.56
2023-02-03T07:04:52.313Z,101290.06
2023-02-03T07:07:18.664Z,101299.69
2023-02-03T07:09:45.121Z,101302.28
2023-02-03T07:12:11.666Z,101318.34
2023-02-03T07:14:39.388Z,101331.59
2023-02-03T07:17:06.987Z,101326.16
2023-02-03T07:19:33.549Z,101335.94
2023-02-03T07:22:00.176Z,101333.19
2023-02-03T07:24:26.647Z,101330.72
2023-02-03T07:26:53.624Z,101327.22
2023-02-03T07:29:20.028Z,101320.03
2023-02-03T07:31:46.504Z,101327.91
2023-02-03T07:34:12.958Z,101321.84
2023-02-03T07:36:39.336Z,101317.41
2023-02-03T07:39:05.742Z,101315.66
2023-02-03T07:41:32.276Z,101331.50
2023-02-03T07:43:58.660Z,101328.78
2023-02-03T07:46:25.201Z,101323.47
2023-02-03T07:48:51.753Z,101320.81
2023-02-03T07:51:18.145Z,101327.91
2023-02-03T07:53:45.314Z,101325.31
2023-02-03T07:56:12.212Z,101314.56
2023-02-03T07:58:38.865Z,101316.31
2023-02-03T08:01:16.640Z,101333.06
2023-02-03T08:03:43.101Z,101333.97
2023-02-03T08:06:10.117Z,101333.19
2023-02-03T08:08:36.713Z,101340.25
2023-02-03T08:11:03.395Z,101334.03
2023-02-03T08:13:29.771Z,101337.56
2023-02-03T08:15:56.229Z,101345.50
2023-02-03T08:18:22.738Z,101334.00
2023-02-03T08:20:49.461Z,101326.97
2023-02-03T08:23:16.416Z,101340.22
2023-02-03T08:25:42.990Z,101333.16
2023-02-03T08:28:09.550Z,101333.13
2023-02-03T08:30:36.371Z,101325.91
2023-02-03T08:33:02.800Z,101323.31
2023-02-03T08:35:29.254Z,101317.97
2023-02-03T08:37:55.755Z,101326.72
2023-02-03T08:40:22.272Z,101314.28
2023-02-03T08:42:48.623Z,101319.66
2023-02-03T08:45:15.117Z,101318.75
2023-02-03T08:47:41.553Z,101316.00
2023-02-03T08:50:09.193Z,101313.47
2023-02-03T08:52:35.888Z,101327.47
2023-02-03T08:55:02.471Z,101314.22
2023-02-03T08:57:33.689Z,101315.84
2023-02-03T09:00:00.440Z,101315.00
2023-02-03T09:02:26.887Z,101316.88
2023-02-03T09:04:53.359Z,101316.00
2023-02-03T09:07:19.820Z,101315.13
2023-02-03T09:09:46.247Z,101322.06
2023-02-03T09:12:13.041Z,101314.09
2023-02-03T09:14:39.590Z,101333.56
2023-02-03T09:17:08.216Z,101333.66
2023-02-03T09:19:36.548Z,101335.22
2023-02-03T09:22:03.728Z,101332.56
2023-02-03T09:24:30.613Z,101321.84
2023-02-03T09:26:57.191Z,101319.25
2023-02-03T09:29:23.578Z,101306.59
2023-02-03T09:31:52.990Z,101292.69
2023-02-03T09:34:20.692Z,101286.53
2023-02-03T09:36:47.541Z,101296.09
2023-02-03T09:39:14.059Z,101306.72
2023-02-03T09:42:10.235Z,101303.97
2023-02-03T09:44:50.371Z,101304.06
2023-02-03T09:47:25.223Z,101305.84
2023-02-03T09:49:55.735Z,101306.78
2023-02-03T09:52:33.988Z,101318.28
2023-02-03T09:55:00.284Z,101311.16
2023-02-03T09:57:29.907Z,101317.28
2023-02-03T09:59:59.452Z,101307.56
2023-02-03T10:02:47.224Z,101292.41
2023-02-03T10:05:53.295Z,101294.06
2023-02-03T10:08:41.272Z,101289.63
2023-02-03T10:11:40.355Z,101301.97
2023-02-03T10:14:27.462Z,101313.75
2023-02-03T10:17:12.001Z,101309.97
2023-02-03T10:19:42.275Z,101306.50
2023-02-03T10:22:14.754Z,101298.72
2023-02-03T10:24:50.288Z,101304.63
2023-02-03T10:27:20.624Z,101296.81
2023-02-03T10:29:54.899Z,101290.63
2023-02-03T10:32:21.351Z,101291.44
2023-02-03T10:34:48.680Z,101278.13
2023-02-03T10:37:39.300Z,101271.91
2023-02-03T10:40:05.944Z,101276.22
2023-02-03T10:42:53.242Z,101274.38
2023-02-03T10:45:20.827Z,101284.09
2023-02-03T10:47:57.783Z,101277.13
2023-02-03T10:50:31.650Z,101271.88
2023-02-03T10:53:32.142Z,101283.38
2023-02-03T10:56:13.902Z,101283.38
2023-02-03T10:58:47.587Z,101291.19
2023-02-03T11:01:16.784Z,101282.47
2023-02-03T11:03:53.768Z,101278.00
2023-02-03T11:06:20.230Z,101282.50
2023-02-03T11:08:49.324Z,101264.72
2023-02-03T11:11:32.434Z,101272.84
2023-02-03T11:14:04.956Z,101277.31
2023-02-03T11:16:34.243Z,101281.75
2023-02-03T11:19:03.558Z,101274.63
2023-02-03T11:21:38.812Z,101289.84
2023-02-03T11:24:22.607Z,101293.34
2023-02-03T11:26:55.749Z,101299.44
2023-02-03T11:29:29.916Z,101299.53
2023-02-03T11:31:58.501Z,101312.63
2023-02-03T11:34:31.606Z,101311.84
2023-02-03T11:36:58.229Z,101286.13
2023-02-03T11:39:29.925Z,101282.41
2023-02-03T11:41:56.493Z,101275.50
2023-02-03T11:44:30.972Z,101269.03
2023-02-03T11:47:11.865Z,101270.72
2023-02-03T11:50:14.060Z,101253.88
2023-02-03T11:52:48.110Z,101241.63
2023-02-03T11:55:32.714Z,101251.38
2023-02-03T11:58:14.049Z,101242.31
2023-02-03T12:01:05.179Z,101237.88
2023-02-03T12:03:52.286Z,101226.31
2023-02-03T12:06:18.626Z,101224.16
2023-02-03T12:09:23.558Z,101214.94
2023-02-03T12:12:29.948Z,101226.88
2023-02-03T12:15:11.456Z,101231.09
2023-02-03T12:17:47.070Z,101250.56
2023-02-03T12:20:32.961Z,101242.97
2023-02-03T12:23:34.271Z,101229.34
2023-02-03T12:26:25.127Z,101239.06
2023-02-03T12:28:58.064Z,101232.13
2023-02-03T12:31:32.534Z,101231.47
2023-02-03T12:34:09.841Z,101230.56
2023-02-03T12:36:41.760Z,101234.03
2023-02-03T12:39:14.580Z,101225.03
2023-02-03T12:41:46.532Z,101214.16
2023-02-03T12:44:43.502Z,101209.00
2023-02-03T12:47:41.552Z,101202.06
2023-02-03T12:50:22.091Z,101199.41
2023-02-03T12:53:00.603Z,101198.31
2023-02-03T12:55:41.856Z,101207.38
2023-02-03T12:58:21.878Z,101206.63
2023-02-03T13:01:05.336Z,101204.91
2023-02-03T13:03:35.517Z,101211.06
2023-02-03T13:06:11.971Z,101203.03
2023-02-03T13:09:14.218Z,101210.16
2023-02-03T13:11:52.540Z,101220.88
2023-02-03T13:14:31.917Z,101223.50
2023-02-03T13:17:15.499Z,101229.66
2023-02-03T13:19:55.112Z,101232.34
2023-02-03T13:22:23.914Z,101224.44
2023-02-03T13:25:17.677Z,101214.59
2023-02-03T13:28:10.437Z,101213.72
2023-02-03T13:31:05.724Z,101205.88
2023-02-03T13:33:38.142Z,101198.72
2023-02-03T13:36:26.421Z,101187.06
2023-02-03T13:39:30.436Z,101181.13
2023-02-03T13:42:17.043Z,101174.09
2023-02-03T13:44:46.742Z,101172.09
2023-02-03T13:47:21.269Z,101181.09
2023-02-03T13:49:53.913Z,101175.81
2023-02-03T13:52:25.638Z,101182.94
2023-02-03T13:54:52.063Z,101174.28
2023-02-03T13:57:22.947Z,101180.41
2023-02-03T13:59:49.751Z,101175.94
2023-02-03T14:02:19.202Z,101179.56
2023-02-03T14:04:45.612Z,101182.44
2023-02-03T14:07:37.903Z,101187.72
2023-02-03T14:10:13.174Z,101175.88
2023-02-03T14:15:21.908Z,101182.06
2023-02-03T14:17:48.274Z,101187.56
2023-02-03T14:20:32.411Z,101196.47
2023-02-03T14:23:06.261Z,101198.34
2023-02-03T14:25:43.580Z,101198.16
2023-02-03T14:28:15.401Z,101192.81
2023-02-03T14:31:00.828Z,101199.06
2023-02-03T14:34:14.932Z,101206.97
2023-02-03T14:36:45.806Z,101202.66
2023-02-03T14:39:18.361Z,101199.97
2023-02-03T14:41:55.496Z,101197.31
2023-02-03T14:44:30.857Z,101206.31
2023-02-03T14:47:28.365Z,101215.03
2023-02-03T14:49:54.643Z,101208.84
2023-02-03T14:52:33.591Z,101217.06
2023-02-03T14:55:09.191Z,101213.41
2023-02-03T14:57:41.415Z,101218.84
2023-02-03T15:00:28.008Z,101217.88
2023-02-03T15:03:06.711Z,101225.19
2023-02-03T15:05:33.032Z,101234.91
2023-02-03T15:08:01.281Z,101214.56
2023-02-03T15:10:40.890Z,101235.66
2023-02-03T15:13:26.451Z,101225.88
2023-02-03T15:15:55.198Z,101226.00
2023-02-03T15:18:36.171Z,101235.78
2023-02-03T15:21:03.269Z,101226.94
2023-02-03T15:23:38.727Z,101222.50
2023-02-03T15:26:19.927Z,101222.53
2023-02-03T15:28:58.007Z,101214.53
2023-02-03T15:31:49.711Z,101219.72
2023-02-03T15:34:39.550Z,101232.44
2023-02-03T15:37:28.543Z,101232.44
2023-02-03T15:39:57.591Z,101229.69
2023-02-03T15:42:39.294Z,101236.00
2023-02-03T15:45:37.738Z,101231.53
2023-02-03T15:48:19.925Z,101229.66
2023-02-03T15:51:02.512Z,101230.44
2023-02-03T15:53:47.545Z,101217.16
2023-02-03T15:56:41.025Z,101216.34
2023-02-03T15:59:21.338Z,101208.47
2023-02-03T16:01:48.305Z,101226.09
2023-02-03T16:04:15.630Z,101232.34
2023-02-03T16:06:47.137Z,101241.78
2023-02-03T16:09:31.910Z,101239.28
2023-02-03T16:12:11.215Z,101260.78
2023-02-03T16:14:37.655Z,101256.25
2023-02-03T16:17:06.120Z,101259.94
2023-02-03T16:19:37.915Z,101261.63
2023-02-03T16:22:04.354Z,101262.53
2023-02-03T16:24:46.082Z,101279.38
2023-02-03T16:27:31.683Z,101274.88
2023-02-03T16:30:25.721Z,101276.56
2023-02-03T16:33:32.830Z,101288.97
2023-02-03T16:36:29.714Z,101290.75
2023-02-03T16:39:16.602Z,101295.91
2023-02-03T16:42:01.354Z,101288.03
2023-02-03T16:44:46.127Z,101289.91
2023-02-03T16:47:46.679Z,101287.16
2023-02-03T16:50:42.868Z,101287.28
2023-02-03T16:53:14.595Z,101287.38
2023-02-03T16:55:42.542Z,101283.81
2023-02-03T16:58:11.221Z,101293.50
2023-02-03T17:00:41.359Z,101297.91
2023-02-03T17:03:09.909Z,101294.44
2023-02-03T17:05:37.873Z,101288.25
2023-02-03T17:08:05.209Z,101287.25
2023-02-03T17:10:34.603Z,101289.78
2023-02-03T17:13:01.069Z,101286.28
2023-02-03T17:15:27.922Z,101284.75
2023-02-03T17:17:54.801Z,101277.72
2023-02-03T17:20:21.250Z,101294.25
2023-02-03T17:22:47.607Z,101292.50
2023-02-03T17:25:13.961Z,101288.94
2023-02-03T17:27:40.369Z,101292.50
2023-02-03T17:30:07.251Z,101295.94
2023-02-03T17:32:33.604Z,101305.63
2023-02-03T17:35:00.023Z,101311.81
2023-02-03T17:37:26.409Z,101307.41
2023-02-03T17:53:33.163Z,101309.88
2023-02-03T17:56:05.975Z,101319.66
2023-02-03T17:58:32.361Z,101318.63
2023-02-03T18:00:58.772Z,101317.69
2023-02-03T18:03:25.169Z,101317.06
2023-02-03T18:05:52.170Z,101316.09
2023-02-03T18:08:20.543Z,101313.47
2023-02-03T18:10:50.687Z,101317.88
2023-02-03T18:13:17.907Z,101322.38
2023-02-03T18:15:44.306Z,101324.06
2023-02-03T18:18:10.938Z,101326.63
2023-02-03T18:20:37.385Z,101327.50
2023-02-03T18:23:03.798Z,101324.03
2023-02-03T18:25:30.151Z,101330.13
2023-02-03T18:27:56.632Z,101322.22
2023-02-03T18:30:23.094Z,101325.81
2023-02-03T18:32:52.657Z,101328.38
2023-02-03T18:35:19.332Z,101332.69
2023-02-03T18:37:45.827Z,101334.69
2023-02-03T18:40:12.719Z,101333.72
2023-02-03T18:42:39.133Z,101340.72
2023-02-03T18:45:06.464Z,101338.03
2023-02-03T18:47:33.659Z,101338.09
2023-02-03T18:50:00.126Z,101340.84
2023-02-03T18:52:26.657Z,101343.44
2023-02-03T18:54:53.048Z,101346.97
2023-02-03T18:57:19.455Z,101348.00
2023-02-03T18:59:46.577Z,101362.06
2023-02-03T19:02:13.022Z,101369.88
2023-02-03T19:04:39.516Z,101376.00
2023-02-03T19:07:06.308Z,101378.69
2023-02-03T19:09:33.979Z,101379.66
2023-02-03T19:12:00.364Z,101381.63
2023-02-03T19:14:28.299Z,101382.41
2023-02-03T19:16:54.865Z,101393.19
2023-02-03T19:19:21.330Z,101394.09
2023-02-03T19:21:48.668Z,101414.47
2023-02-03T19:24:16.101Z,101418.16
2023-02-03T19:26:42.639Z,101419.84
2023-02-03T19:29:09.056Z,101422.47
2023-02-03T19:31:35.724Z,101424.41
2023-02-03T19:34:02.354Z,101419.88
2023-02-03T19:36:29.650Z,101425.22
2023-02-03T19:38:56.840Z,101423.41
2023-02-03T19:41:25.620Z,101426.28
2023-02-03T19:43:52.207Z,101430.75
2023-02-03T19:46:21.600Z,101435.34
2023-02-03T19:48:48.560Z,101445.94
2023-02-03T19:51:15.098Z,101447.72
2023-02-03T19:53:41.550Z,101437.03
2023-02-03T19:56:07.994Z,101449.34
2023-02-03T19:58:34.419Z,101458.97
2023-02-03T20:01:00.834Z,101451.78
2023-02-03T20:03:27.233Z,101453.75
2023-02-03T20:05:54.216Z,101459.13
2023-02-03T20:08:20.616Z,101469.00
2023-02-03T20:10:47.109Z,101472.66
2023-02-03T20:13:14.220Z,101472.72
2023-02-03T20:15:41.280Z,101474.50
2023-02-03T20:18:07.957Z,101479.91
2023-02-03T20:20:35.021Z,101481.69
2023-02-03T20:23:01.562Z,101490.63
2023-02-03T20:25:27.927Z,101491.34
2023-02-03T20:27:56.705Z,101486.03
2023-02-03T20:30:23.131Z,101483.38
2023-02-03T20:32:49.934Z,101487.88
2023-02-03T20:35:16.400Z,101478.88
2023-02-03T20:37:43.384Z,101480.66
2023-02-03T20:40:19.255Z,101478.91
2023-02-03T20:42:45.662Z,101478.88
2023-02-03T20:45:20.523Z,101471.75
2023-02-03T20:47:47.555Z,101463.09
2023-02-03T20:50:26.929Z,101474.66
2023-02-03T20:52:57.880Z,101472.91
2023-02-03T20:55:24.351Z,101472.84
2023-02-03T20:57:51.486Z,101465.72
2023-02-03T21:00:24.122Z,101463.78
2023-02-03T21:03:09.475Z,101465.66
2023-02-03T21:05:39.428Z,101465.78
2023-02-03T21:08:18.299Z,101466.63
2023-02-03T21:10:46.595Z,101464.81
2023-02-03T21:13:30.947Z,101474.53
2023-02-03T21:16:04.997Z,101478.03
2023-02-03T21:18:34.344Z,101482.38
2023-02-03T21:21:01.424Z,101491.25
2023-02-03T21:23:36.203Z,101492.13
2023-02-03T21:26:15.075Z,101494.97
2023-02-03T21:28:41.450Z,101487.69
2023-02-03T21:31:19.420Z,101484.09
2023-02-03T21:33:45.959Z,101469.13
2023-02-03T21:36:17.118Z,101478.03
2023-02-03T21:38:44.525Z,101470.88
2023-02-03T21:41:16.518Z,101479.78
2023-02-03T21:43:44.928Z,101488.53
2023-02-03T21:46:27.675Z,101487.69
2023-02-03T21:48:59.537Z,101485.06
2023-02-03T21:51:36.482Z,101481.53
2023-02-03T21:54:12.910Z,101493.81
2023-02-03T21:56:41.580Z,101490.31
2023-02-03T21:59:16.599Z,101500.97
2023-02-03T22:01:43.035Z,101495.72
2023-02-03T22:04:09.466Z,101488.59
2023-02-03T22:06:48.947Z,101485.09
2023-02-03T22:09:20.646Z,101483.19
2023-02-03T22:11:47.667Z,101494.78
2023-02-03T22:14:16.398Z,101493.91
2023-02-03T22:16:43.445Z,101497.44
2023-02-03T22:19:10.451Z,101505.50
2023-02-03T22:21:36.880Z,101508.06
2023-02-03T22:24:03.480Z,101507.16
2023-02-03T22:26:29.962Z,101505.44
2023-02-03T22:28:56.533Z,101513.44
2023-02-03T22:31:23.532Z,101512.50
2023-02-03T22:33:50.017Z,101509.91
2023-02-03T22:36:16.578Z,101522.28
2023-02-03T22:38:43.307Z,101519.56
2023-02-03T22:41:14.466Z,101520.34
2023-02-03T22:43:41.140Z,101533.78
2023-02-03T22:46:07.933Z,101534.47
2023-02-03T22:48:34.678Z,101542.59
2023-02-03T22:51:01.448Z,101544.31
2023-02-03T22:53:28.470Z,101549.56
2023-02-03T22:55:57.900Z,101558.50
2023-02-03T22:58:24.368Z,101556.78
2023-02-03T23:00:50.946Z,101554.97
2023-02-03T23:03:17.453Z,101553.22
2023-02-03T23:05:43.811Z,101564.69
2023-02-03T23:08:10.381Z,101567.38
2023-02-03T23:10:36.979Z,101563.78
2023-02-03T23:13:03.455Z,101567.25
2023-02-03T23:15:30.041Z,101569.91
2023-02-03T23:17:56.643Z,101582.19
2023-02-03T23:20:23.238Z,101579.50
2023-02-03T23:22:49.956Z,101581.50
2023-02-03T23:25:16.378Z,101592.00
2023-02-03T23:27:42.854Z,101595.56
2023-02-03T23:30:10.372Z,101591.16
2023-02-03T23:32:36.869Z,101597.38
2023-02-03T23:35:42.487Z,101596.59
2023-02-03T23:38:08.879Z,101598.41
2023-02-03T23:40:35.220Z,101608.16
2023-02-03T23:43:01.574Z,101612.59
2023-02-03T23:45:27.954Z,101602.00
2023-02-03T23:47:54.352Z,101605.59
2023-02-03T23:50:20.862Z,101587.78
2023-02-03T23:52:47.832Z,101580.75
2023-02-03T23:55:17.572Z,101590.50
2023-02-03T23:57:44.364Z,101589.59
